Main page
METAR-TAF:

METAR-TAF

Airports :

Gloucestershire Airport

Gloucester, England

latitude: 51-54N, longitude: 002-10W, elevation: 29 m

Current weather observation

The report was made 15 hours and 49 minutes ago, at 14:50 UTC
Wind 11 kt from the West/Northwest
Temperature 14°C
Humidity 67%
Pressure 1003 hPa
Visibility 10 km or more
Few clouds at a height of 1800 ft
Scattered clouds at a height of 2800 ft
Broken clouds at a height of 4800 ft
showers in vicinity

METAR: EGBJ 041450Z 29011KT 9999 VCSH FEW018 SCT028 BKN048 14/08 Q1003

Time: 07:39 (06:39 UTC)

Forecast

The report was made 22 hours and 38 minutes ago, at 08:01 UTC
Forecast valid from 04 at 09 UTC to 04 at 15 UTC
Wind 9 kt from the West/Northwest
Visibility 10 km or more
Scattered clouds at a height of 2500 ft
Probability 30% :
Temporary
from 04 at 12 UTC to 04 at 15 UTC
Visibility: 7000 m
Broken clouds at a height of 1400 ft
rain showers

TAF: EGBJ 040801Z 0409/0415 30009KT 9999 SCT025 PROB30 TEMPO 0412/0415 7000 SHRA BKN014

Weather observations and forecasts of more than 4000 airports (METAR and TAF reports).

The available stations are represented by yellow and red dots on the map.

Hover mouse over dot to see the name of the station.

Then click to see weather observations and forecasts.

To change the map : click on the green buttons with a black cross to zoom in, on the green button with a dash to zoom out, or on the green arrows for adjacent maps.


METAR-TAF: